Time;durP1;ratioP1;P1;durP2;ratioP2;P2;SDS_P1;SDS_P2;PMS_P1;PMS_P2;Temp;Humidity;BMP_temperature;BMP_pressure;BME280_temperature;BME280_humidity;BME280_pressure;Samples;Min_cycle;Max_cycle;Signal;HPM_P1;HPM_P2
2024/01/03 00:00:18;;;;;;;1.60;0.70;;;10.00;34.40;;;;;;5015351;28;20411;-69
2024/01/03 00:02:45;;;;;;;2.13;0.50;;;10.00;33.30;;;;;;5015008;28;20969;-69
2024/01/03 00:05:12;;;;;;;1.60;0.60;;;10.00;34.30;;;;;;5015302;28;20435;-69
2024/01/03 00:07:38;;;;;;;1.70;0.50;;;9.80;36.40;;;;;;5013910;28;20738;-70
2024/01/03 00:10:27;;;;;;;2.10;0.70;;;9.80;35.20;;;;;;5015148;28;20779;-68
2024/01/03 00:12:53;;;;;;;2.00;0.77;;;9.80;35.80;;;;;;5014944;28;20314;-70
2024/01/03 00:15:56;;;;;;;1.80;0.80;;;9.80;34.60;;;;;;5015007;28;20447;-69
2024/01/03 00:18:54;;;;;;;1.57;0.60;;;9.70;33.80;;;;;;5014842;28;20632;-73
2024/01/03 00:21:25;;;;;;;1.70;0.70;;;9.50;34.90;;;;;;5013511;28;20423;-70
2024/01/03 00:23:56;;;;;;;1.87;0.60;;;9.40;35.20;;;;;;5013688;28;20414;-70
2024/01/03 00:26:29;;;;;;;1.77;0.63;;;9.40;35.80;;;;;;5014929;28;20453;-69
2024/01/03 00:28:58;;;;;;;2.07;0.90;;;9.20;36.40;;;;;;5014854;28;20426;-70
2024/01/03 00:31:44;;;;;;;1.90;0.97;;;9.10;36.40;;;;;;5014648;28;20426;-70
2024/01/03 00:34:22;;;;;;;2.47;0.70;;;9.10;36.40;;;;;;5014864;28;20448;-70
2024/01/03 00:36:48;;;;;;;2.20;1.03;;;9.10;36.40;;;;;;5014588;28;20440;-70
2024/01/03 00:39:14;;;;;;;1.80;0.80;;;9.20;35.60;;;;;;5014563;28;20520;-70
2024/01/03 00:41:40;;;;;;;5.23;1.17;;;9.20;36.30;;;;;;5014202;28;20431;-70
2024/01/03 00:44:05;;;;;;;2.87;0.80;;;9.30;36.10;;;;;;5013296;28;20776;-70
2024/01/03 00:46:32;;;;;;;1.80;0.70;;;9.30;34.30;;;;;;5014643;28;20265;-70
2024/01/03 00:48:58;;;;;;;1.77;0.60;;;9.40;33.90;;;;;;5014537;28;20180;-70
2024/01/03 00:51:24;;;;;;;1.83;0.77;;;9.40;34.40;;;;;;5014264;28;20514;-69
2024/01/03 00:53:49;;;;;;;1.60;0.60;;;9.50;35.40;;;;;;5012993;28;20873;-68
2024/01/03 00:56:15;;;;;;;1.93;0.67;;;9.40;36.30;;;;;;5014293;28;20183;-69
2024/01/03 00:58:41;;;;;;;2.10;0.60;;;9.40;37.00;;;;;;5014168;28;20678;-69
2024/01/03 01:01:07;;;;;;;1.60;0.60;;;9.40;38.40;;;;;;5013980;28;20425;-70
2024/01/03 01:03:33;;;;;;;2.03;0.83;;;9.30;39.60;;;;;;5014032;28;20199;-69
2024/01/03 01:05:59;;;;;;;2.10;0.90;;;9.10;41.80;;;;;;5014039;28;20937;-70
2024/01/03 01:08:24;;;;;;;1.70;0.70;;;9.00;43.90;;;;;;5011949;28;20249;-70
2024/01/03 01:10:50;;;;;;;2.00;0.80;;;8.90;45.90;;;;;;5012352;28;20426;-70
2024/01/03 01:13:15;;;;;;;2.90;0.80;;;9.20;46.70;;;;;;5014427;28;20594;-69
2024/01/03 01:15:41;;;;;;;1.60;0.63;;;8.90;47.30;;;;;;5014026;28;20232;-70
2024/01/03 01:18:06;;;;;;;1.80;0.80;;;8.80;47.60;;;;;;5013970;28;20291;-69
2024/01/03 01:20:32;;;;;;;2.53;1.13;;;8.90;47.80;;;;;;5013755;28;20176;-69
2024/01/03 01:22:58;;;;;;;2.27;1.33;;;8.90;47.30;;;;;;5013758;28;20207;-69
2024/01/03 01:25:24;;;;;;;2.30;1.10;;;8.90;48.20;;;;;;5013674;28;20429;-69
2024/01/03 01:27:49;;;;;;;2.93;1.10;;;9.00;48.50;;;;;;5013623;28;20243;-70
2024/01/03 01:30:15;;;;;;;1.47;0.50;;;9.00;47.10;;;;;;5013636;28;20250;-70
2024/01/03 01:32:41;;;;;;;1.60;0.50;;;9.20;46.70;;;;;;5013565;28;20203;-68
2024/01/03 01:35:07;;;;;;;2.00;0.80;;;9.10;47.40;;;;;;5013825;28;20180;-69
2024/01/03 01:37:32;;;;;;;1.70;0.70;;;9.10;50.80;;;;;;5013652;28;20172;-70
2024/01/03 01:39:58;;;;;;;1.77;0.70;;;8.90;51.40;;;;;;5013615;28;20411;-70
2024/01/03 01:42:25;;;;;;;1.50;0.60;;;8.90;51.40;;;;;;5013219;28;20196;-69
2024/01/03 01:44:50;;;;;;;1.50;0.50;;;8.80;52.20;;;;;;5013659;28;20164;-69
2024/01/03 01:47:16;;;;;;;1.50;0.50;;;8.70;54.40;;;;;;5013262;28;20425;-70
2024/01/03 01:49:42;;;;;;;1.73;0.50;;;8.70;57.10;;;;;;5013201;28;20656;-69
2024/01/03 01:52:10;;;;;;;1.40;0.50;;;8.60;57.60;;;;;;5013039;28;20882;-70
2024/01/03 01:54:36;;;;;;;1.50;0.70;;;8.60;59.20;;;;;;5013127;28;20271;-70
2024/01/03 01:57:03;;;;;;;1.40;0.50;;;8.60;59.70;;;;;;5012953;28;20471;-70
2024/01/03 01:59:29;;;;;;;1.50;0.57;;;8.60;60.50;;;;;;5013061;28;20575;-70
2024/01/03 02:01:55;;;;;;;1.97;0.70;;;8.60;60.90;;;;;;5012774;28;20437;-70
2024/01/03 02:04:21;;;;;;;1.50;0.50;;;8.50;62.00;;;;;;5012948;28;20433;-70
2024/01/03 02:06:47;;;;;;;1.40;0.60;;;8.60;61.90;;;;;;5014035;28;20917;-70
2024/01/03 02:09:12;;;;;;;1.60;0.60;;;8.50;62.00;;;;;;5013306;28;20592;-70
2024/01/03 02:11:45;;;;;;;1.60;0.70;;;8.50;64.00;;;;;;5012424;28;20218;-69
2024/01/03 02:14:10;;;;;;;1.37;0.50;;;8.50;64.00;;;;;;5012766;28;20246;-70
2024/01/03 02:16:36;;;;;;;1.70;0.60;;;8.60;63.50;;;;;;5012758;28;20418;-69
2024/01/03 02:19:04;;;;;;;1.30;0.50;;;8.60;63.30;;;;;;5012366;28;20203;-69
2024/01/03 02:21:30;;;;;;;1.50;0.70;;;8.60;63.20;;;;;;5012410;28;20539;-70
2024/01/03 02:23:55;;;;;;;1.60;0.60;;;8.60;62.90;;;;;;5012673;28;20461;-69
2024/01/03 02:26:21;;;;;;;1.93;0.70;;;8.60;63.00;;;;;;5012820;28;20237;-70
2024/01/03 02:28:46;;;;;;;1.80;0.77;;;8.60;63.50;;;;;;5012692;28;20210;-69
2024/01/03 02:31:12;;;;;;;2.50;0.60;;;8.60;63.60;;;;;;5012419;28;20283;-69
2024/01/03 02:33:37;;;;;;;2.47;0.60;;;8.70;62.90;;;;;;5012483;28;20213;-69
2024/01/03 02:36:03;;;;;;;1.60;0.80;;;8.70;63.30;;;;;;5012542;28;20208;-69
2024/01/03 02:38:29;;;;;;;1.47;0.60;;;8.70;61.10;;;;;;5012596;28;20569;-73
2024/01/03 02:40:54;;;;;;;2.23;0.80;;;8.70;56.80;;;;;;5012370;28;20422;-71
2024/01/03 02:43:20;;;;;;;2.20;0.87;;;8.70;54.40;;;;;;5012692;28;20277;-70
2024/01/03 02:45:45;;;;;;;2.27;1.07;;;8.80;49.30;;;;;;5012531;28;20176;-70
2024/01/03 02:48:11;;;;;;;1.50;0.60;;;8.90;49.20;;;;;;5012267;28;20172;-69
2024/01/03 02:50:37;;;;;;;1.70;0.60;;;8.90;48.00;;;;;;5012072;28;20187;-70
2024/01/03 02:53:02;;;;;;;1.90;0.80;;;8.90;48.80;;;;;;5012177;28;20282;-69
2024/01/03 02:55:28;;;;;;;2.00;0.70;;;8.90;47.00;;;;;;5012223;28;20182;-69
2024/01/03 02:57:54;;;;;;;1.50;0.50;;;9.00;46.50;;;;;;5012041;28;20199;-70
2024/01/03 03:00:19;;;;;;;1.97;0.70;;;9.00;46.00;;;;;;5012152;28;20183;-70
2024/01/03 03:02:45;;;;;;;1.40;0.50;;;9.10;45.90;;;;;;5012202;28;20329;-70
2024/01/03 03:05:11;;;;;;;1.70;0.70;;;9.00;46.30;;;;;;5011939;28;20180;-70
2024/01/03 03:07:37;;;;;;;1.50;0.63;;;9.00;45.10;;;;;;5012052;28;20568;-69
2024/01/03 03:10:03;;;;;;;1.60;0.60;;;9.00;44.70;;;;;;5011923;28;20182;-70
2024/01/03 03:12:28;;;;;;;1.40;0.50;;;9.10;41.50;;;;;;5011601;28;20979;-70
2024/01/03 03:14:54;;;;;;;2.37;0.70;;;9.10;40.40;;;;;;5012043;28;20415;-70
2024/01/03 03:17:19;;;;;;;1.80;0.70;;;9.10;39.40;;;;;;5011846;28;20199;-69
2024/01/03 03:19:45;;;;;;;2.00;0.70;;;9.10;39.40;;;;;;5011856;28;20682;-70
2024/01/03 03:22:10;;;;;;;2.90;0.73;;;9.10;40.00;;;;;;5011531;28;20679;-70
2024/01/03 03:24:36;;;;;;;1.50;0.60;;;9.10;38.40;;;;;;5011780;28;20225;-69
2024/01/03 03:27:02;;;;;;;1.70;0.70;;;9.20;36.40;;;;;;5011884;28;20200;-70
2024/01/03 03:29:27;;;;;;;1.80;0.70;;;9.30;36.10;;;;;;5011721;28;20175;-70
2024/01/03 03:31:53;;;;;;;2.13;0.60;;;9.30;35.90;;;;;;5015174;28;20188;-69
2024/01/03 03:34:18;;;;;;;3.03;0.83;;;9.20;36.80;;;;;;5015844;28;20199;-69
2024/01/03 03:36:44;;;;;;;2.20;0.73;;;9.00;37.00;;;;;;5015659;28;20179;-70
2024/01/03 03:39:10;;;;;;;2.37;0.73;;;8.90;37.90;;;;;;5015607;28;20250;-69
2024/01/03 03:41:37;;;;;;;2.23;0.70;;;8.80;39.00;;;;;;5015554;28;20833;-69
2024/01/03 03:44:02;;;;;;;2.17;0.70;;;8.70;38.90;;;;;;5016120;28;20569;-69
2024/01/03 03:46:28;;;;;;;1.60;0.70;;;8.70;38.30;;;;;;5015775;28;20421;-70
2024/01/03 03:48:53;;;;;;;3.17;1.00;;;8.60;39.00;;;;;;5015751;28;20648;-70
2024/01/03 03:51:19;;;;;;;1.47;0.53;;;8.60;39.10;;;;;;5014169;28;20236;-69
2024/01/03 03:53:45;;;;;;;2.10;0.50;;;8.50;39.60;;;;;;5015462;28;20180;-69
2024/01/03 03:56:20;;;;;;;1.60;0.80;;;8.50;39.60;;;;;;5015461;28;20661;-70
2024/01/03 03:58:45;;;;;;;2.87;1.50;;;8.40;39.90;;;;;;5015510;28;20286;-69
2024/01/03 04:01:11;;;;;;;1.60;0.70;;;8.40;39.30;;;;;;5015094;28;20505;-68
2024/01/03 04:03:36;;;;;;;4.73;0.70;;;8.30;39.20;;;;;;5015084;28;20192;-70
2024/01/03 04:06:02;;;;;;;2.47;0.87;;;8.40;37.70;;;;;;5015326;28;20670;-70
2024/01/03 04:08:27;;;;;;;4.63;0.60;;;8.30;39.40;;;;;;5015286;28;20183;-70
2024/01/03 04:10:53;;;;;;;2.00;0.60;;;8.30;38.40;;;;;;5014985;28;20717;-69
2024/01/03 04:13:18;;;;;;;1.80;1.03;;;8.30;38.10;;;;;;5014882;28;20260;-70
2024/01/03 04:15:45;;;;;;;2.10;0.80;;;8.30;37.80;;;;;;5015210;28;20306;-69
2024/01/03 04:18:10;;;;;;;2.17;1.00;;;8.30;37.50;;;;;;5014796;28;20564;-69
2024/01/03 04:20:36;;;;;;;2.27;0.80;;;8.30;36.70;;;;;;5013530;28;20621;-69
2024/01/03 04:23:01;;;;;;;2.90;0.73;;;8.30;35.80;;;;;;5014870;28;20214;-69
2024/01/03 04:25:27;;;;;;;3.67;1.63;;;8.20;35.80;;;;;;5014912;28;20183;-69
2024/01/03 04:27:52;;;;;;;1.80;0.87;;;8.20;36.70;;;;;;5014735;28;20204;-69
2024/01/03 04:30:18;;;;;;;1.40;0.40;;;8.20;36.30;;;;;;5013391;28;20560;-70
2024/01/03 04:32:44;;;;;;;2.10;1.23;;;8.20;36.40;;;;;;5014501;28;20728;-69
2024/01/03 04:35:09;;;;;;;2.00;0.80;;;8.10;37.60;;;;;;5014779;28;20560;-69
2024/01/03 04:37:35;;;;;;;2.13;0.97;;;8.20;36.70;;;;;;5014459;28;20210;-69
2024/01/03 04:40:00;;;;;;;2.47;0.93;;;8.20;36.30;;;;;;5014577;28;20539;-70
2024/01/03 04:42:26;;;;;;;6.57;0.90;;;8.20;37.10;;;;;;5014250;28;20253;-69
2024/01/03 04:44:52;;;;;;;2.07;0.97;;;8.10;36.60;;;;;;5014594;28;20186;-68
2024/01/03 04:47:18;;;;;;;3.43;0.83;;;8.20;35.60;;;;;;5014327;28;20190;-69
2024/01/03 04:49:43;;;;;;;1.60;0.50;;;8.20;35.60;;;;;;5014430;28;20425;-69
2024/01/03 04:52:11;;;;;;;2.97;0.90;;;8.20;35.60;;;;;;5014158;28;20205;-70
2024/01/03 04:54:37;;;;;;;1.90;0.83;;;8.40;34.10;;;;;;5014276;28;20176;-70
2024/01/03 04:57:03;;;;;;;8.83;1.10;;;8.40;34.60;;;;;;5014630;28;20564;-69
2024/01/03 04:59:28;;;;;;;2.37;0.73;;;8.40;34.20;;;;;;5014250;28;20206;-69
2024/01/03 05:01:54;;;;;;;1.50;0.60;;;8.30;35.30;;;;;;5012658;28;20516;-69
2024/01/03 05:04:19;;;;;;;2.20;0.93;;;8.40;34.70;;;;;;5013273;28;20181;-70
2024/01/03 05:06:45;;;;;;;4.80;0.80;;;8.40;35.00;;;;;;5014075;28;20183;-70
2024/01/03 05:09:11;;;;;;;17.03;1.70;;;8.30;35.70;;;;;;5014171;28;20226;-68
2024/01/03 05:11:36;;;;;;;1.90;0.90;;;8.20;35.90;;;;;;5013807;28;20631;-69
2024/01/03 05:14:02;;;;;;;2.90;1.10;;;8.20;36.80;;;;;;5014097;28;20195;-69
2024/01/03 05:16:27;;;;;;;3.20;1.10;;;8.10;37.00;;;;;;5012602;28;20186;-69
2024/01/03 05:18:53;;;;;;;2.27;0.87;;;8.10;37.80;;;;;;5013827;28;20737;-69
2024/01/03 05:21:18;;;;;;;2.33;0.77;;;8.10;37.80;;;;;;5012202;28;20685;-69
2024/01/03 05:23:44;;;;;;;2.40;1.00;;;8.20;37.60;;;;;;5012621;28;20532;-70
2024/01/03 05:26:10;;;;;;;3.60;1.23;;;8.40;36.60;;;;;;5013894;28;20179;-70
2024/01/03 05:28:35;;;;;;;1.63;0.70;;;8.50;36.60;;;;;;5014055;28;20190;-70
2024/01/03 05:31:01;;;;;;;4.27;1.27;;;8.50;36.70;;;;;;5014374;28;20422;-71
2024/01/03 05:33:27;;;;;;;2.00;1.27;;;8.50;37.00;;;;;;5013546;28;20560;-70
2024/01/03 05:35:52;;;;;;;3.43;1.23;;;8.60;36.30;;;;;;5013667;28;20663;-70
2024/01/03 05:38:18;;;;;;;2.40;0.80;;;8.70;36.00;;;;;;5013484;28;20211;-69
2024/01/03 05:40:44;;;;;;;2.20;0.67;;;8.70;37.00;;;;;;5013269;28;20521;-69
2024/01/03 05:43:11;;;;;;;1.80;0.73;;;8.60;36.90;;;;;;5013326;28;20488;-69
2024/01/03 05:45:37;;;;;;;4.63;0.93;;;8.60;37.50;;;;;;5013320;28;20186;-69
2024/01/03 05:48:03;;;;;;;1.63;0.80;;;8.50;38.40;;;;;;5013307;28;20418;-69
2024/01/03 05:50:28;;;;;;;2.27;0.80;;;8.50;39.50;;;;;;5011687;28;20471;-70
2024/01/03 05:52:54;;;;;;;1.70;0.60;;;8.40;40.90;;;;;;5011310;28;20445;-69
2024/01/03 05:55:19;;;;;;;2.20;0.83;;;8.40;41.40;;;;;;5013221;28;20230;-69
2024/01/03 05:57:45;;;;;;;3.43;0.77;;;8.40;42.40;;;;;;5013299;28;20206;-69
2024/01/03 06:00:11;;;;;;;3.80;0.87;;;8.40;43.70;;;;;;5013452;28;20207;-68
2024/01/03 06:02:37;;;;;;;1.80;0.70;;;8.30;43.70;;;;;;5013086;28;20252;-69
2024/01/03 06:05:02;;;;;;;1.80;1.00;;;8.30;46.50;;;;;;5013344;28;20409;-69
2024/01/03 06:07:28;;;;;;;1.63;0.57;;;8.20;45.80;;;;;;5013070;28;20575;-69
2024/01/03 06:09:53;;;;;;;6.90;0.80;;;8.20;45.80;;;;;;5012919;28;20182;-69
2024/01/03 06:12:19;;;;;;;1.73;0.63;;;8.20;46.70;;;;;;5012531;28;20215;-69
2024/01/03 06:14:44;;;;;;;2.87;0.60;;;8.20;46.60;;;;;;5012762;28;20178;-69
2024/01/03 06:17:10;;;;;;;1.70;0.60;;;8.30;46.80;;;;;;5012804;28;20266;-70
2024/01/03 06:19:36;;;;;;;1.70;0.50;;;8.30;47.10;;;;;;5012631;28;20222;-69
2024/01/03 06:22:01;;;;;;;3.50;0.70;;;8.30;47.30;;;;;;5012482;28;20224;-69
2024/01/03 06:24:27;;;;;;;1.63;0.70;;;8.20;47.80;;;;;;5013035;28;20179;-71
2024/01/03 06:26:52;;;;;;;2.10;0.70;;;8.30;48.40;;;;;;5012835;28;20181;-68
2024/01/03 06:29:18;;;;;;;1.67;0.60;;;8.30;48.30;;;;;;5012548;28;20182;-69
2024/01/03 06:31:43;;;;;;;1.60;0.63;;;8.30;47.90;;;;;;5012367;28;20226;-69
2024/01/03 06:34:09;;;;;;;1.60;0.60;;;8.20;47.50;;;;;;5012654;28;20548;-69
2024/01/03 06:36:34;;;;;;;2.87;0.90;;;8.10;48.40;;;;;;5012379;28;20546;-69
2024/01/03 06:39:00;;;;;;;2.00;1.00;;;8.00;49.20;;;;;;5012368;28;20249;-69
2024/01/03 06:41:25;;;;;;;1.40;0.53;;;8.00;49.00;;;;;;5012077;28;20176;-69
2024/01/03 06:43:51;;;;;;;1.73;0.80;;;8.00;48.40;;;;;;5012434;28;20681;-69
2024/01/03 06:46:17;;;;;;;2.37;0.90;;;7.90;48.90;;;;;;5012245;28;20582;-69
2024/01/03 06:48:42;;;;;;;1.80;0.70;;;7.80;49.30;;;;;;5012207;28;20181;-69
2024/01/03 06:51:08;;;;;;;1.80;1.00;;;7.70;50.00;;;;;;5012188;28;20213;-69
2024/01/03 06:53:37;;;;;;;4.80;1.03;;;7.80;49.10;;;;;;5012454;28;20202;-70
2024/01/03 06:56:03;;;;;;;1.60;0.70;;;7.80;47.90;;;;;;5011063;28;20680;-70
2024/01/03 06:58:28;;;;;;;1.90;0.60;;;7.80;47.40;;;;;;5010992;28;20460;-71
2024/01/03 07:00:54;;;;;;;2.40;0.80;;;7.80;47.50;;;;;;5013058;28;20174;-70
2024/01/03 07:03:20;;;;;;;2.83;1.00;;;7.80;47.00;;;;;;5012831;28;20559;-70
2024/01/03 07:05:45;;;;;;;3.00;1.10;;;7.90;45.60;;;;;;5010857;28;20189;-69
2024/01/03 07:08:11;;;;;;;3.87;0.97;;;8.10;44.60;;;;;;5012849;28;20183;-69
2024/01/03 07:10:36;;;;;;;5.63;0.97;;;8.10;43.20;;;;;;5011731;28;20647;-71
2024/01/03 07:13:02;;;;;;;2.77;1.03;;;8.10;43.00;;;;;;5145331;23;20250;-70
2024/01/03 07:15:28;;;;;;;4.13;0.90;;;8.10;43.30;;;;;;5025654;28;20179;-69
2024/01/03 07:17:55;;;;;;;2.47;1.40;;;8.30;43.30;;;;;;5026086;28;20510;-70
2024/01/03 07:20:22;;;;;;;2.90;0.80;;;8.20;41.70;;;;;;5026105;28;20775;-70
2024/01/03 07:22:48;;;;;;;4.73;0.70;;;8.20;41.70;;;;;;5026166;28;20433;-68
2024/01/03 07:25:13;;;;;;;4.60;1.40;;;8.30;39.40;;;;;;5027284;28;20522;-69
2024/01/03 07:27:39;;;;;;;1.70;0.70;;;8.40;38.40;;;;;;5027653;28;20485;-69
2024/01/03 07:30:05;;;;;;;5.80;2.30;;;8.60;37.40;;;;;;5025687;28;20190;-69
2024/01/03 07:32:31;;;;;;;3.23;1.40;;;8.70;36.60;;;;;;5026171;28;20443;-69
2024/01/03 07:34:57;;;;;;;2.27;0.77;;;8.70;37.50;;;;;;5023947;28;20765;-69
2024/01/03 07:37:22;;;;;;;3.07;1.13;;;8.80;37.90;;;;;;5025299;28;20181;-70
2024/01/03 07:39:48;;;;;;;1.67;0.80;;;8.80;37.90;;;;;;5023720;28;20219;-69
2024/01/03 07:42:14;;;;;;;3.40;1.00;;;9.00;37.40;;;;;;5024924;28;20441;-69
2024/01/03 07:44:42;;;;;;;2.00;0.77;;;9.00;36.40;;;;;;5024003;28;20194;-70
2024/01/03 07:47:11;;;;;;;1.77;0.73;;;9.00;35.20;;;;;;5024735;28;20226;-69
2024/01/03 07:49:42;;;;;;;3.50;1.00;;;9.00;34.90;;;;;;5025632;28;20510;-70
2024/01/03 07:52:08;;;;;;;2.07;0.93;;;9.10;34.00;;;;;;5025525;28;20459;-69
2024/01/03 07:54:33;;;;;;;2.33;0.80;;;9.10;32.30;;;;;;5024390;28;20426;-70
2024/01/03 07:57:01;;;;;;;2.63;0.70;;;9.30;31.50;;;;;;5026167;28;20184;-70
2024/01/03 07:59:26;;;;;;;2.80;0.87;;;9.20;31.30;;;;;;5024549;28;20237;-69
2024/01/03 08:01:52;;;;;;;1.90;0.83;;;9.20;31.60;;;;;;5025009;28;20415;-69
2024/01/03 08:04:17;;;;;;;1.93;0.83;;;9.00;31.30;;;;;;5023828;28;20184;-69
2024/01/03 08:06:43;;;;;;;1.93;0.70;;;9.90;31.80;;;;;;5024316;28;20183;-68
2024/01/03 08:09:09;;;;;;;1.90;0.80;;;9.40;30.30;;;;;;5026178;28;20195;-68
2024/01/03 08:11:35;;;;;;;2.47;1.00;;;9.60;30.00;;;;;;5025458;28;20176;-69
2024/01/03 08:14:01;;;;;;;2.63;0.83;;;9.60;29.20;;;;;;5024040;28;20464;-69
2024/01/03 08:16:27;;;;;;;1.80;0.70;;;9.60;28.90;;;;;;5024850;28;20571;-69
2024/01/03 08:18:52;;;;;;;2.80;1.33;;;9.70;28.30;;;;;;5028849;28;20207;-68
2024/01/03 08:21:19;;;;;;;2.60;1.03;;;9.80;28.30;;;;;;5026717;28;20604;-68
2024/01/03 08:23:45;;;;;;;2.70;1.40;;;9.80;28.30;;;;;;5025487;28;20207;-68
2024/01/03 08:26:13;;;;;;;2.40;0.90;;;9.80;28.20;;;;;;5026809;28;20423;-68
2024/01/03 08:28:40;;;;;;;2.00;1.07;;;9.90;28.10;;;;;;5028796;28;20230;-69
2024/01/03 08:31:07;;;;;;;2.90;1.70;;;9.80;27.70;;;;;;5029279;28;20414;-69
2024/01/03 08:33:36;;;;;;;2.77;1.03;;;10.00;27.90;;;;;;5029527;28;20434;-68
2024/01/03 08:36:02;;;;;;;5.40;2.27;;;9.70;28.90;;;;;;5029704;28;20425;-68
2024/01/03 08:38:28;;;;;;;3.07;1.80;;;9.80;29.40;;;;;;5027201;28;20459;-69
2024/01/03 08:40:54;;;;;;;2.87;1.77;;;9.80;28.70;;;;;;5027591;28;20419;-69
2024/01/03 08:43:19;;;;;;;8.43;2.03;;;10.40;28.00;;;;;;5029243;28;20733;-68
2024/01/03 08:45:45;;;;;;;2.83;1.40;;;10.00;27.70;;;;;;5028064;28;20187;-68
2024/01/03 08:48:10;;;;;;;5.30;1.30;;;10.00;27.40;;;;;;5025558;28;20211;-68
2024/01/03 08:50:36;;;;;;;3.60;1.43;;;10.10;27.60;;;;;;5025105;28;20183;-69
2024/01/03 08:53:01;;;;;;;3.60;1.40;;;10.10;27.10;;;;;;5026310;28;20200;-68
2024/01/03 08:55:27;;;;;;;7.13;1.23;;;10.20;27.00;;;;;;5024780;28;20188;-69
2024/01/03 08:57:56;;;;;;;2.23;1.00;;;10.60;27.20;;;;;;5023720;28;20258;-69
2024/01/03 09:00:25;;;;;;;3.03;1.77;;;10.60;27.20;;;;;;5025299;28;20172;-69
2024/01/03 09:02:51;;;;;;;2.33;1.37;;;10.30;27.90;;;;;;5025256;28;20427;-69
2024/01/03 09:05:18;;;;;;;3.90;1.80;;;10.20;29.40;;;;;;5026720;28;20967;-69
2024/01/03 09:07:47;;;;;;;3.77;1.63;;;10.00;31.10;;;;;;5026496;28;20474;-69
2024/01/03 09:10:13;;;;;;;2.97;1.27;;;9.90;34.10;;;;;;5023725;28;20435;-70
2024/01/03 09:12:38;;;;;;;2.40;1.00;;;9.90;37.10;;;;;;5022386;28;20510;-69
2024/01/03 09:15:05;;;;;;;2.07;0.83;;;10.00;35.20;;;;;;5024161;28;20415;-69
2024/01/03 09:17:30;;;;;;;6.67;1.87;;;10.00;36.50;;;;;;5025422;28;20179;-69
2024/01/03 09:19:56;;;;;;;6.47;1.20;;;9.80;38.70;;;;;;5025331;28;20545;-69
2024/01/03 09:22:22;;;;;;;4.00;1.37;;;9.60;39.30;;;;;;5025931;28;20191;-69
2024/01/03 09:24:47;;;;;;;3.10;0.90;;;9.60;40.30;;;;;;5026065;28;20239;-69
2024/01/03 09:27:13;;;;;;;4.17;1.00;;;9.80;40.00;;;;;;5025442;28;20179;-69
2024/01/03 09:29:41;;;;;;;2.17;1.00;;;9.70;39.50;;;;;;5023867;28;20186;-69
2024/01/03 09:32:07;;;;;;;8.87;1.43;;;9.80;39.20;;;;;;5025932;28;20199;-69
2024/01/03 09:34:38;;;;;;;3.20;1.30;;;10.00;37.20;;;;;;5025245;28;20417;-69
2024/01/03 09:37:03;;;;;;;4.90;1.13;;;10.00;33.30;;;;;;5024061;28;20419;-69
2024/01/03 09:39:29;;;;;;;6.63;1.33;;;10.40;32.80;;;;;;5025569;28;21027;-69
2024/01/03 09:41:55;;;;;;;4.40;1.17;;;10.10;31.20;;;;;;5025076;28;20231;-69
2024/01/03 09:44:21;;;;;;;7.63;2.03;;;10.30;31.30;;;;;;5025442;28;20200;-70
2024/01/03 09:46:49;;;;;;;2.57;1.23;;;10.20;29.50;;;;;;5025095;28;20445;-70
2024/01/03 09:49:17;;;;;;;3.30;1.40;;;10.40;29.40;;;;;;5025030;28;20415;-69
2024/01/03 09:51:44;;;;;;;2.00;1.10;;;10.50;29.30;;;;;;5025895;28;20423;-70
2024/01/03 09:54:09;;;;;;;1.90;0.80;;;10.60;27.70;;;;;;5023566;28;20493;-68
2024/01/03 09:56:41;;;;;;;4.10;1.33;;;10.60;28.20;;;;;;5024621;28;20422;-69
2024/01/03 09:59:08;;;;;;;3.83;1.93;;;10.50;27.10;;;;;;5025008;28;20290;-69
2024/01/03 10:01:34;;;;;;;4.67;1.80;;;10.70;26.60;;;;;;5025345;28;20411;-68
2024/01/03 10:04:00;;;;;;;3.90;1.50;;;10.50;27.10;;;;;;5025164;28;20407;-70
2024/01/03 10:06:26;;;;;;;4.60;1.10;;;10.50;27.80;;;;;;5024936;28;20430;-68
2024/01/03 10:09:03;;;;;;;2.53;1.27;;;10.70;29.40;;;;;;5024722;28;20250;-68
2024/01/03 10:11:29;;;;;;;3.60;1.90;;;10.40;27.40;;;;;;5024473;28;20490;-69
2024/01/03 10:13:56;;;;;;;3.40;1.30;;;10.70;28.80;;;;;;5025582;28;20458;-68
2024/01/03 10:16:28;;;;;;;3.20;1.37;;;10.40;29.60;;;;;;5025203;28;20427;-68
2024/01/03 10:19:11;;;;;;;4.53;1.93;;;10.50;28.60;;;;;;5025757;28;20467;-69
2024/01/03 10:21:45;;;;;;;2.90;1.23;;;10.70;26.70;;;;;;5024489;28;20510;-69
2024/01/03 10:24:11;;;;;;;2.83;1.50;;;11.10;27.50;;;;;;5022852;28;20441;-70
2024/01/03 10:26:37;;;;;;;2.60;0.90;;;10.90;24.90;;;;;;5023097;28;20415;-70
2024/01/03 10:29:11;;;;;;;1.97;0.80;;;10.80;22.80;;;;;;5023341;28;20183;-68
2024/01/03 10:31:36;;;;;;;2.80;1.00;;;11.00;23.30;;;;;;5023475;28;20415;-68
2024/01/03 10:34:05;;;;;;;6.03;2.23;;;10.90;22.10;;;;;;5024075;28;20875;-67
2024/01/03 10:36:34;;;;;;;3.30;1.43;;;11.00;22.30;;;;;;5022922;28;20424;-69
2024/01/03 10:39:02;;;;;;;3.67;1.13;;;11.40;22.20;;;;;;5022825;28;20455;-69
2024/01/03 10:41:29;;;;;;;4.77;1.47;;;11.20;21.40;;;;;;5022148;28;20420;-69
2024/01/03 10:44:01;;;;;;;4.50;1.40;;;11.30;21.00;;;;;;5021399;28;20441;-69
2024/01/03 10:46:30;;;;;;;3.83;1.73;;;11.10;20.30;;;;;;5022034;28;20446;-69
2024/01/03 10:48:56;;;;;;;5.20;1.87;;;11.20;20.90;;;;;;5022432;28;20437;-70
2024/01/03 10:51:26;;;;;;;3.93;1.23;;;11.00;20.20;;;;;;5024967;28;20421;-69
2024/01/03 10:53:58;;;;;;;2.77;1.50;;;11.00;20.80;;;;;;5023767;28;20540;-70
2024/01/03 10:56:24;;;;;;;1.60;0.70;;;11.10;21.50;;;;;;5025606;28;20431;-69
2024/01/03 10:58:52;;;;;;;2.57;0.90;;;10.80;21.20;;;;;;5026497;28;20458;-69
2024/01/03 11:01:28;;;;;;;2.77;1.00;;;11.00;22.10;;;;;;5026291;28;20418;-69
2024/01/03 11:04:04;;;;;;;3.97;1.60;;;10.80;22.30;;;;;;5024409;28;20469;-69
2024/01/03 11:07:13;;;;;;;3.03;1.07;;;10.70;23.40;;;;;;5024064;28;20417;-69
2024/01/03 11:09:39;;;;;;;3.10;1.00;;;10.60;25.00;;;;;;4963203;29;20434;-69
2024/01/03 11:12:15;;;;;;;3.40;1.07;;;10.80;24.00;;;;;;4962854;29;20437;-69
2024/01/03 11:14:41;;;;;;;3.20;0.83;;;11.00;24.00;;;;;;4985331;28;20195;-69
2024/01/03 11:17:09;;;;;;;2.70;1.13;;;11.30;23.60;;;;;;5022637;28;20415;-69
2024/01/03 11:19:37;;;;;;;2.87;1.17;;;11.30;21.60;;;;;;5022946;28;20463;-68
2024/01/03 11:22:04;;;;;;;2.93;1.30;;;11.40;21.20;;;;;;5023105;28;20431;-69
2024/01/03 11:24:30;;;;;;;1.80;1.10;;;11.50;20.40;;;;;;5021837;28;20425;-70
2024/01/03 11:26:56;;;;;;;3.37;1.67;;;11.60;19.50;;;;;;5022652;28;20444;-68
2024/01/03 11:29:48;;;;;;;4.70;1.93;;;11.60;18.90;;;;;;5022645;28;20413;-69
2024/01/03 11:32:14;;;;;;;3.27;1.37;;;11.70;18.80;;;;;;5021214;28;20518;-69
2024/01/03 11:34:41;;;;;;;3.40;1.13;;;11.80;18.20;;;;;;5021058;28;20465;-69
2024/01/03 11:37:27;;;;;;;2.23;0.90;;;11.80;18.10;;;;;;5023200;28;20437;-69
2024/01/03 11:39:54;;;;;;;5.43;1.80;;;11.60;18.50;;;;;;5022049;28;20836;-70
2024/01/03 11:42:33;;;;;;;11.80;1.97;;;11.60;19.50;;;;;;5022422;28;20430;-68
2024/01/03 11:45:05;;;;;;;3.80;1.40;;;11.40;19.30;;;;;;5019995;28;20445;-69
2024/01/03 11:47:39;;;;;;;2.50;0.90;;;11.40;19.00;;;;;;5021264;28;20435;-69
2024/01/03 11:50:05;;;;;;;3.43;1.23;;;11.40;18.40;;;;;;5021387;28;20509;-70
2024/01/03 11:52:40;;;;;;;3.20;1.30;;;11.40;17.10;;;;;;5025132;28;20870;-69
2024/01/03 11:55:10;;;;;;;3.40;0.73;;;11.40;17.30;;;;;;5027330;28;20418;-69
2024/01/03 11:57:38;;;;;;;3.00;1.00;;;11.40;17.00;;;;;;5026642;28;20415;-69
2024/01/03 12:00:05;;;;;;;2.43;0.70;;;11.40;17.50;;;;;;5027798;28;20416;-68
2024/01/03 12:02:31;;;;;;;4.17;1.47;;;11.30;17.70;;;;;;5029590;28;20433;-69
2024/01/03 12:05:01;;;;;;;2.60;0.93;;;11.50;21.70;;;;;;5029897;28;20422;-69
2024/01/03 12:07:28;;;;;;;2.13;0.87;;;11.00;23.30;;;;;;5030633;28;20189;-69
2024/01/03 12:09:55;;;;;;;2.73;1.00;;;11.40;25.10;;;;;;5029814;28;20431;-69
2024/01/03 12:12:21;;;;;;;3.50;0.70;;;10.90;27.40;;;;;;5029318;28;20450;-69
2024/01/03 12:14:54;;;;;;;1.93;1.03;;;10.40;27.90;;;;;;5030299;28;20418;-68
2024/01/03 12:17:26;;;;;;;7.50;1.23;;;10.40;30.00;;;;;;5029296;28;20199;-68
2024/01/03 12:19:52;;;;;;;1.60;0.70;;;10.50;31.40;;;;;;5027514;28;20467;-67
2024/01/03 12:22:24;;;;;;;2.03;0.90;;;10.70;32.90;;;;;;5028017;28;21256;-68
2024/01/03 12:24:50;;;;;;;4.07;1.30;;;10.60;32.60;;;;;;5028350;28;20951;-69
2024/01/03 12:27:23;;;;;;;2.17;0.90;;;11.20;32.10;;;;;;5028075;28;20545;-69
2024/01/03 12:29:51;;;;;;;1.73;0.70;;;10.90;29.80;;;;;;5029012;28;20450;-68
2024/01/03 12:32:18;;;;;;;2.70;1.00;;;11.00;28.80;;;;;;5027978;28;20433;-68
2024/01/03 12:34:46;;;;;;;2.10;0.90;;;11.10;28.20;;;;;;5026582;28;20511;-68
2024/01/03 12:37:12;;;;;;;2.10;0.70;;;11.80;26.80;;;;;;5026728;28;20442;-69
2024/01/03 12:39:38;;;;;;;1.80;0.80;;;12.50;22.00;;;;;;5027192;28;20458;-69
2024/01/03 12:42:04;;;;;;;2.37;1.27;;;12.50;19.10;;;;;;5028160;28;20932;-68
2024/01/03 12:44:33;;;;;;;1.87;0.73;;;12.20;20.40;;;;;;5027865;28;20785;-68
2024/01/03 12:46:59;;;;;;;3.10;0.67;;;11.90;20.50;;;;;;5028872;28;20430;-68
2024/01/03 12:49:25;;;;;;;4.07;0.70;;;11.40;21.80;;;;;;5026427;28;20944;-69
2024/01/03 12:51:51;;;;;;;3.70;0.97;;;11.30;22.20;;;;;;5026460;28;20273;-69